Time;durP1;ratioP1;P1;durP2;ratioP2;P2;SDS_P1;SDS_P2;PMS_P1;PMS_P2;Temp;Humidity;BMP_temperature;BMP_pressure;BME280_temperature;BME280_humidity;BME280_pressure;Samples;Min_cycle;Max_cycle;Signal;HPM_P1;HPM_P2
2023/11/11 00:01:58;;;;;;;5.27;3.70;;;8.20;99.90;;;;;;5101238;28;20193;-43
2023/11/11 00:04:25;;;;;;;7.07;4.00;;;8.20;99.90;;;;;;5068563;28;20212;-42
2023/11/11 00:06:53;;;;;;;4.37;3.97;;;8.20;99.90;;;;;;5101608;28;20205;-42
2023/11/11 00:09:20;;;;;;;5.93;4.30;;;8.20;99.90;;;;;;5101056;28;20254;-42
2023/11/11 00:11:49;;;;;;;6.10;4.40;;;8.20;99.90;;;;;;5102357;28;20201;-44
2023/11/11 00:14:16;;;;;;;6.63;4.60;;;8.20;99.90;;;;;;5090730;28;20204;-44
2023/11/11 00:16:44;;;;;;;4.77;4.33;;;8.20;99.90;;;;;;5100408;28;20478;-42
2023/11/11 00:19:13;;;;;;;4.77;4.33;;;8.20;99.90;;;;;;5092621;28;20201;-42
2023/11/11 00:21:42;;;;;;;5.77;4.87;;;8.20;99.90;;;;;;5083564;28;20874;-45
2023/11/11 00:24:11;;;;;;;6.10;4.33;;;8.20;99.90;;;;;;5101817;28;20201;-43
2023/11/11 00:26:38;;;;;;;6.90;4.57;;;8.20;99.90;;;;;;5103254;28;20209;-44
2023/11/11 00:29:07;;;;;;;4.83;4.40;;;8.20;99.90;;;;;;5105846;28;20931;-47
2023/11/11 00:31:34;;;;;;;6.87;4.67;;;8.20;99.90;;;;;;5093007;28;20309;-48
2023/11/11 00:34:01;;;;;;;10.03;4.90;;;8.30;99.90;;;;;;5105620;27;20281;-43
2023/11/11 00:36:29;;;;;;;4.90;4.40;;;8.30;99.90;;;;;;5069915;27;20213;-43
2023/11/11 00:38:56;;;;;;;5.10;4.70;;;8.30;99.90;;;;;;5105583;28;20246;-46
2023/11/11 00:41:25;;;;;;;5.20;4.70;;;8.20;99.90;;;;;;5103632;27;20197;-42
2023/11/11 00:43:52;;;;;;;5.23;4.43;;;8.20;99.90;;;;;;5105978;28;20188;-44
2023/11/11 00:46:19;;;;;;;7.17;4.63;;;8.30;99.90;;;;;;5093536;28;20220;-43
2023/11/11 00:48:45;;;;;;;6.60;4.40;;;8.20;99.90;;;;;;5104320;28;20474;-46
2023/11/11 00:51:13;;;;;;;6.30;4.33;;;8.30;99.90;;;;;;5073789;27;20284;-42
2023/11/11 00:53:40;;;;;;;9.70;4.83;;;8.30;99.90;;;;;;5099591;27;20192;-41
2023/11/11 00:56:07;;;;;;;8.93;5.13;;;8.20;99.90;;;;;;5105211;28;20214;-46
2023/11/11 00:58:35;;;;;;;6.13;5.00;;;8.30;99.90;;;;;;5102081;28;20288;-45
2023/11/11 01:01:03;;;;;;;5.03;4.40;;;8.30;99.90;;;;;;5092140;28;20197;-46
2023/11/11 01:03:30;;;;;;;6.47;4.83;;;8.30;99.90;;;;;;5101087;28;20215;-47
2023/11/11 01:05:57;;;;;;;5.97;5.17;;;8.30;99.90;;;;;;5077927;27;20221;-41
2023/11/11 01:08:23;;;;;;;10.40;5.23;;;8.30;99.90;;;;;;5098713;28;20209;-44
2023/11/11 01:10:50;;;;;;;6.93;5.33;;;8.20;99.90;;;;;;5103430;28;20200;-43
2023/11/11 01:13:19;;;;;;;9.57;5.70;;;8.30;99.90;;;;;;5103439;28;20189;-44
2023/11/11 01:15:47;;;;;;;6.73;5.40;;;8.30;99.90;;;;;;5103812;28;20721;-42
2023/11/11 01:18:14;;;;;;;7.20;5.03;;;8.20;99.90;;;;;;5095393;28;20896;-45
2023/11/11 01:20:41;;;;;;;8.07;5.17;;;8.30;99.90;;;;;;5102504;28;20190;-42
2023/11/11 01:23:08;;;;;;;6.13;5.07;;;8.30;99.90;;;;;;5063893;28;20292;-44
2023/11/11 01:25:35;;;;;;;5.67;4.73;;;8.20;99.90;;;;;;5103780;28;20221;-46
2023/11/11 01:28:02;;;;;;;6.07;5.27;;;8.30;99.90;;;;;;5099489;28;20201;-44
2023/11/11 01:30:28;;;;;;;7.50;5.67;;;8.20;99.90;;;;;;5104722;28;20451;-43
2023/11/11 01:32:57;;;;;;;7.83;5.40;;;8.20;99.90;;;;;;5090979;28;20562;-42
2023/11/11 01:35:23;;;;;;;6.03;5.43;;;8.20;99.90;;;;;;5104778;27;20289;-42
2023/11/11 01:37:51;;;;;;;5.67;5.13;;;8.20;99.90;;;;;;5070789;28;20691;-42
2023/11/11 01:40:18;;;;;;;8.30;5.63;;;8.30;99.90;;;;;;5103866;27;20411;-46
2023/11/11 01:42:45;;;;;;;6.40;5.30;;;8.30;99.90;;;;;;5104751;27;20200;-42
2023/11/11 01:45:12;;;;;;;10.20;5.63;;;8.30;99.90;;;;;;5102480;27;20190;-44
2023/11/11 01:47:39;;;;;;;7.97;6.10;;;8.30;99.90;;;;;;5096330;28;20262;-45
2023/11/11 01:50:09;;;;;;;8.93;5.77;;;8.30;99.90;;;;;;5100825;27;20188;-43
2023/11/11 01:52:37;;;;;;;7.33;6.50;;;8.30;99.90;;;;;;5072361;27;20682;-47
2023/11/11 01:55:05;;;;;;;10.07;6.13;;;8.30;99.90;;;;;;5094561;27;20196;-43
2023/11/11 01:57:32;;;;;;;6.53;5.83;;;8.30;99.90;;;;;;5104276;27;20205;-47
2023/11/11 02:00:05;;;;;;;7.70;6.27;;;8.30;99.90;;;;;;5098838;27;20198;-43
2023/11/11 02:02:33;;;;;;;8.67;5.90;;;8.30;99.90;;;;;;5102542;28;20249;-43
2023/11/11 02:05:00;;;;;;;8.30;6.47;;;8.30;99.90;;;;;;5100378;27;20797;-42
2023/11/11 02:07:28;;;;;;;10.53;6.60;;;8.30;99.90;;;;;;5102582;28;20308;-47
2023/11/11 02:09:55;;;;;;;8.97;6.63;;;8.30;99.90;;;;;;5070619;27;20263;-43
2023/11/11 02:12:23;;;;;;;7.67;6.10;;;8.30;99.90;;;;;;5103962;27;20193;-44
2023/11/11 02:14:50;;;;;;;7.70;6.20;;;8.30;99.90;;;;;;5102027;28;20221;-43
2023/11/11 02:17:17;;;;;;;8.93;6.27;;;8.30;99.90;;;;;;5102777;27;21002;-44
2023/11/11 02:19:44;;;;;;;9.57;6.40;;;8.30;99.90;;;;;;5095356;28;20208;-42
2023/11/11 02:22:11;;;;;;;8.20;6.03;;;8.30;99.90;;;;;;5100184;27;20178;-43
2023/11/11 02:24:42;;;;;;;7.47;5.80;;;8.30;99.90;;;;;;5066976;27;20206;-44
2023/11/11 02:27:11;;;;;;;7.70;5.87;;;8.30;99.90;;;;;;5098339;28;20221;-44
2023/11/11 02:29:44;;;;;;;6.20;5.70;;;8.30;99.90;;;;;;5103577;28;20208;-44
2023/11/11 02:32:11;;;;;;;6.93;5.77;;;8.30;99.90;;;;;;5099075;28;20871;-45
2023/11/11 02:34:38;;;;;;;10.40;6.60;;;8.30;99.90;;;;;;5090216;27;20680;-43
2023/11/11 02:37:04;;;;;;;7.07;6.37;;;8.30;99.90;;;;;;5094020;28;20221;-43
2023/11/11 02:39:32;;;;;;;8.83;6.17;;;8.30;99.90;;;;;;5102234;28;20258;-45
2023/11/11 02:42:00;;;;;;;8.00;6.50;;;8.30;99.90;;;;;;5063220;27;20213;-42
2023/11/11 02:44:27;;;;;;;7.93;6.30;;;8.30;99.90;;;;;;5101625;28;20193;-44
2023/11/11 02:46:54;;;;;;;10.83;6.23;;;8.30;99.90;;;;;;5101409;27;20205;-45
2023/11/11 02:49:21;;;;;;;9.07;6.40;;;8.30;99.90;;;;;;5100900;27;20223;-45
2023/11/11 02:51:48;;;;;;;8.90;6.40;;;8.30;99.90;;;;;;5094129;27;20194;-44
2023/11/11 02:54:14;;;;;;;8.13;6.43;;;8.30;99.90;;;;;;5098796;28;20193;-42
2023/11/11 02:56:41;;;;;;;8.73;6.33;;;8.30;99.90;;;;;;5068134;28;20217;-45
2023/11/11 02:59:09;;;;;;;8.03;6.27;;;8.30;99.90;;;;;;5099816;27;20258;-44
2023/11/11 03:01:37;;;;;;;11.23;6.80;;;8.30;99.90;;;;;;5102153;27;20198;-45
2023/11/11 03:04:04;;;;;;;9.70;7.03;;;8.30;99.90;;;;;;5099208;28;20194;-45
2023/11/11 03:06:31;;;;;;;7.83;6.87;;;8.30;99.90;;;;;;5094890;28;20234;-43
2023/11/11 03:08:58;;;;;;;7.87;6.10;;;8.30;99.90;;;;;;5098092;28;20211;-46
2023/11/11 03:11:26;;;;;;;8.57;6.53;;;8.30;99.90;;;;;;5070577;28;20344;-46
2023/11/11 03:13:53;;;;;;;8.60;7.07;;;8.30;99.90;;;;;;5097833;28;20201;-42
2023/11/11 03:16:21;;;;;;;8.30;7.13;;;8.30;99.90;;;;;;5100022;28;20223;-44
2023/11/11 03:18:48;;;;;;;9.43;7.00;;;8.30;99.90;;;;;;5101520;28;20660;-42
2023/11/11 03:21:21;;;;;;;11.40;7.10;;;8.30;99.90;;;;;;5092115;28;20194;-46
2023/11/11 03:23:48;;;;;;;11.60;7.83;;;8.30;99.90;;;;;;5100379;28;20213;-44
2023/11/11 03:26:16;;;;;;;11.37;6.93;;;8.30;99.90;;;;;;5068863;27;20229;-46
2023/11/11 03:28:43;;;;;;;9.10;7.40;;;8.30;99.90;;;;;;5101671;28;20203;-42
2023/11/11 03:31:10;;;;;;;10.07;7.30;;;8.30;99.90;;;;;;5099233;28;20293;-48
2023/11/11 03:33:38;;;;;;;12.13;7.40;;;8.30;99.90;;;;;;5102319;28;20226;-43
2023/11/11 03:36:05;;;;;;;9.97;7.60;;;8.30;99.90;;;;;;5098338;28;20852;-43
2023/11/11 03:38:32;;;;;;;8.83;7.07;;;8.30;99.90;;;;;;5093013;28;20728;-44
2023/11/11 03:40:59;;;;;;;9.00;6.93;;;8.30;99.90;;;;;;5097225;28;20197;-42
2023/11/11 03:43:26;;;;;;;7.80;6.90;;;8.30;99.90;;;;;;5065992;28;20209;-43
2023/11/11 03:45:53;;;;;;;12.87;7.87;;;8.30;99.90;;;;;;5099914;28;20270;-44
2023/11/11 03:48:20;;;;;;;9.37;7.20;;;8.30;99.90;;;;;;5101189;28;20213;-45
2023/11/11 03:50:48;;;;;;;10.80;7.67;;;8.30;99.90;;;;;;5101390;28;20231;-43
2023/11/11 03:53:15;;;;;;;9.20;7.37;;;8.30;99.90;;;;;;5089870;28;20205;-43
2023/11/11 03:55:42;;;;;;;10.13;7.77;;;8.30;99.90;;;;;;5102728;28;20294;-48
2023/11/11 03:58:09;;;;;;;8.67;6.67;;;8.30;99.90;;;;;;5066819;28;20274;-46
2023/11/11 04:00:36;;;;;;;9.33;6.90;;;8.30;99.90;;;;;;5108063;27;21419;-43
2023/11/11 04:03:03;;;;;;;11.63;7.00;;;8.20;99.90;;;;;;5102908;27;20205;-46
2023/11/11 04:05:30;;;;;;;10.40;7.50;;;8.30;99.90;;;;;;5093831;27;20218;-44
2023/11/11 04:07:58;;;;;;;11.03;7.20;;;8.20;99.90;;;;;;5107498;27;20287;-46
2023/11/11 04:10:25;;;;;;;12.93;8.00;;;8.30;99.90;;;;;;5098515;27;20209;-44
2023/11/11 04:12:52;;;;;;;10.63;8.07;;;8.20;99.90;;;;;;5102950;27;20250;-47
2023/11/11 04:15:20;;;;;;;11.37;7.53;;;8.20;99.90;;;;;;5075442;27;20217;-48
2023/11/11 04:17:48;;;;;;;14.63;8.07;;;8.20;99.90;;;;;;5104602;28;20220;-44
2023/11/11 04:20:17;;;;;;;9.77;7.40;;;8.20;99.90;;;;;;5098938;27;20201;-48
2023/11/11 04:22:44;;;;;;;8.80;7.47;;;8.20;99.90;;;;;;5101813;27;20238;-42
2023/11/11 04:25:12;;;;;;;11.03;6.93;;;8.20;99.90;;;;;;5096426;27;20212;-50
2023/11/11 04:27:42;;;;;;;9.93;7.20;;;8.10;99.90;;;;;;5105717;27;20201;-42
2023/11/11 04:30:10;;;;;;;10.30;7.57;;;8.10;99.90;;;;;;5073417;27;21241;-46
2023/11/11 04:32:37;;;;;;;14.20;7.27;;;8.10;99.90;;;;;;5107755;27;20205;-44
2023/11/11 04:35:07;;;;;;;8.43;6.83;;;8.10;99.90;;;;;;5106582;27;20188;-43
2023/11/11 04:37:34;;;;;;;9.33;6.17;;;8.10;99.90;;;;;;5108347;27;20209;-46
2023/11/11 04:40:01;;;;;;;8.60;6.80;;;8.10;99.90;;;;;;5097652;27;20197;-43
2023/11/11 04:42:29;;;;;;;9.73;6.50;;;8.10;99.90;;;;;;5115003;27;20197;-45
2023/11/11 04:44:56;;;;;;;10.73;7.10;;;8.10;99.90;;;;;;5104521;27;20360;-46
2023/11/11 04:47:23;;;;;;;13.43;7.47;;;8.10;99.90;;;;;;5076690;27;20225;-46
2023/11/11 04:49:50;;;;;;;9.43;7.07;;;8.10;99.90;;;;;;5105098;27;20202;-44
2023/11/11 04:52:17;;;;;;;8.53;7.20;;;8.10;99.90;;;;;;5106838;27;20246;-45
2023/11/11 04:54:44;;;;;;;10.83;6.77;;;8.10;99.90;;;;;;5097454;27;20213;-44
2023/11/11 04:57:11;;;;;;;10.57;6.93;;;8.10;99.90;;;;;;5111603;27;20282;-44
2023/11/11 04:59:39;;;;;;;8.47;6.83;;;8.10;99.90;;;;;;5107095;27;20201;-46
2023/11/11 05:02:06;;;;;;;8.33;6.93;;;8.20;99.90;;;;;;5074453;27;20201;-45
2023/11/11 05:04:33;;;;;;;13.60;8.00;;;8.20;99.90;;;;;;5108493;27;20226;-44
2023/11/11 05:07:00;;;;;;;14.20;7.30;;;8.20;99.90;;;;;;5105023;27;20205;-46
2023/11/11 05:09:27;;;;;;;10.30;6.90;;;8.20;99.90;;;;;;5108375;27;20197;-42
2023/11/11 05:11:55;;;;;;;12.20;7.13;;;8.20;99.90;;;;;;5093200;27;20194;-47
2023/11/11 05:14:23;;;;;;;11.73;6.87;;;8.20;99.90;;;;;;5090589;28;20231;-44
2023/11/11 05:16:52;;;;;;;9.77;7.03;;;8.20;99.90;;;;;;5073871;28;20221;-47
2023/11/11 05:19:20;;;;;;;10.50;7.10;;;8.20;99.90;;;;;;5084279;28;20979;-43
2023/11/11 05:21:47;;;;;;;12.00;6.97;;;8.20;99.90;;;;;;5105359;28;20684;-43
2023/11/11 05:24:15;;;;;;;12.93;7.33;;;8.20;99.90;;;;;;5100849;28;20193;-43
2023/11/11 05:26:42;;;;;;;9.53;6.67;;;8.20;99.90;;;;;;5097060;28;20221;-43
2023/11/11 05:29:10;;;;;;;15.67;7.83;;;8.30;99.90;;;;;;5102251;28;20204;-44
2023/11/11 05:31:37;;;;;;;7.63;6.20;;;8.20;99.90;;;;;;5069801;27;20205;-43
2023/11/11 05:34:05;;;;;;;9.10;6.73;;;8.20;99.90;;;;;;5101812;28;20189;-47
2023/11/11 05:36:33;;;;;;;15.73;7.77;;;8.20;99.90;;;;;;5094898;28;20980;-44
2023/11/11 05:39:00;;;;;;;8.57;7.13;;;8.20;99.90;;;;;;5103433;28;20205;-49
2023/11/11 05:41:29;;;;;;;7.60;6.33;;;8.30;99.90;;;;;;5093657;28;20209;-44
2023/11/11 05:43:56;;;;;;;10.27;6.90;;;8.30;99.90;;;;;;5105016;28;20208;-45
2023/11/11 05:46:24;;;;;;;8.90;6.50;;;8.30;99.90;;;;;;5066678;28;20262;-44
2023/11/11 05:48:51;;;;;;;9.23;6.40;;;8.20;99.90;;;;;;5101277;28;20610;-45
2023/11/11 05:51:19;;;;;;;9.90;6.20;;;8.20;99.90;;;;;;5099854;28;20202;-43
2023/11/11 05:53:46;;;;;;;11.57;6.20;;;8.20;99.90;;;;;;5104558;28;20429;-46
2023/11/11 05:56:14;;;;;;;10.93;6.40;;;8.10;99.90;;;;;;5100420;28;20213;-45
2023/11/11 05:58:41;;;;;;;9.47;6.63;;;8.10;99.90;;;;;;5096089;28;20300;-43
2023/11/11 06:01:08;;;;;;;8.33;5.80;;;8.10;99.90;;;;;;5101465;28;20548;-48
2023/11/11 06:03:36;;;;;;;8.37;5.80;;;8.00;99.90;;;;;;5066738;28;20212;-47
2023/11/11 06:06:04;;;;;;;11.17;6.07;;;8.00;99.90;;;;;;5102402;28;20274;-46
2023/11/11 06:08:32;;;;;;;9.07;5.80;;;8.00;99.90;;;;;;5093716;27;21036;-43
2023/11/11 06:10:59;;;;;;;7.07;5.50;;;8.00;99.90;;;;;;5099506;27;20213;-45
2023/11/11 06:13:26;;;;;;;8.20;5.93;;;7.90;99.90;;;;;;5084989;27;20206;-44
2023/11/11 06:15:53;;;;;;;11.37;6.50;;;7.80;99.90;;;;;;5091845;27;20224;-44
2023/11/11 06:18:20;;;;;;;11.03;5.47;;;7.80;99.90;;;;;;5066800;27;20293;-43
2023/11/11 06:20:47;;;;;;;6.43;5.07;;;7.80;99.90;;;;;;5092608;27;20590;-45
2023/11/11 06:23:14;;;;;;;9.10;5.90;;;7.70;99.90;;;;;;5087367;28;20225;-44
2023/11/11 06:25:42;;;;;;;7.87;4.97;;;7.70;99.90;;;;;;5092066;27;20217;-45
2023/11/11 06:28:10;;;;;;;8.63;5.77;;;7.60;99.90;;;;;;5092338;28;20243;-45
2023/11/11 06:30:37;;;;;;;8.83;6.00;;;7.70;99.90;;;;;;5100057;27;20229;-49
2023/11/11 06:33:04;;;;;;;9.40;6.40;;;7.70;99.90;;;;;;5097375;28;20265;-49
2023/11/11 06:35:32;;;;;;;10.03;5.47;;;7.70;99.90;;;;;;5066206;27;20221;-46
2023/11/11 06:37:59;;;;;;;7.13;5.10;;;7.80;99.90;;;;;;5086223;28;20213;-49
2023/11/11 06:40:27;;;;;;;6.43;5.20;;;7.80;99.90;;;;;;5089236;28;20205;-49
2023/11/11 06:42:55;;;;;;;6.67;5.97;;;7.80;99.90;;;;;;5102092;28;20284;-46
2023/11/11 06:45:22;;;;;;;7.43;5.70;;;7.80;99.90;;;;;;5088845;28;20197;-45
2023/11/11 06:47:49;;;;;;;9.40;5.43;;;7.90;99.90;;;;;;5099661;28;20211;-44
2023/11/11 06:50:18;;;;;;;7.03;5.87;;;7.90;99.90;;;;;;5061231;28;20450;-47
2023/11/11 06:52:45;;;;;;;6.87;6.17;;;7.90;99.90;;;;;;5078904;28;20209;-45
2023/11/11 06:55:12;;;;;;;8.90;5.37;;;8.00;99.90;;;;;;5087546;28;20258;-44
2023/11/11 06:57:39;;;;;;;10.30;5.97;;;8.00;99.90;;;;;;5080646;28;20835;-45
2023/11/11 07:00:15;;;;;;;9.23;6.17;;;8.00;99.90;;;;;;5091439;28;20209;-46
2023/11/11 07:02:43;;;;;;;9.30;6.67;;;8.00;99.90;;;;;;5088437;28;20213;-44
2023/11/11 07:05:10;;;;;;;9.10;6.07;;;8.00;99.90;;;;;;5098681;27;20786;-45
2023/11/11 07:07:40;;;;;;;7.87;6.10;;;8.00;99.90;;;;;;5054892;27;22687;-45
2023/11/11 07:10:07;;;;;;;11.37;6.77;;;8.00;99.90;;;;;;5089420;27;20884;-44
2023/11/11 07:12:34;;;;;;;8.67;6.73;;;8.00;99.90;;;;;;5073185;28;20580;-45
2023/11/11 07:15:01;;;;;;;9.37;6.80;;;8.10;99.90;;;;;;5073356;27;20246;-46
2023/11/11 07:17:29;;;;;;;9.90;6.07;;;8.10;99.90;;;;;;5088312;28;20213;-47
2023/11/11 07:19:57;;;;;;;8.90;6.33;;;8.10;99.90;;;;;;5089124;27;20219;-44
2023/11/11 07:22:24;;;;;;;11.07;6.87;;;8.10;99.90;;;;;;5063701;27;20205;-44
2023/11/11 07:24:51;;;;;;;7.73;6.30;;;8.10;99.90;;;;;;5086102;28;20197;-44
2023/11/11 07:27:18;;;;;;;9.10;6.10;;;8.10;99.90;;;;;;5091894;28;20250;-43
2023/11/11 07:29:45;;;;;;;10.10;6.80;;;8.10;99.90;;;;;;5081058;27;20192;-43
2023/11/11 07:32:12;;;;;;;9.13;5.90;;;8.10;99.90;;;;;;5091031;27;20219;-45
2023/11/11 07:34:43;;;;;;;9.77;6.20;;;8.10;99.90;;;;;;5094724;27;20212;-46
2023/11/11 07:37:11;;;;;;;7.37;5.77;;;8.10;99.90;;;;;;5082879;27;20231;-46
2023/11/11 07:39:39;;;;;;;8.83;6.40;;;8.10;99.90;;;;;;5096074;27;20687;-44
2023/11/11 07:42:07;;;;;;;8.97;6.43;;;8.20;99.90;;;;;;5099888;28;20221;-46
2023/11/11 07:44:34;;;;;;;9.57;7.20;;;8.20;99.90;;;;;;5059874;28;20560;-45
2023/11/11 07:47:06;;;;;;;17.57;9.90;;;8.20;99.90;;;;;;5086178;28;20274;-44
2023/11/11 07:49:33;;;;;;;13.97;9.60;;;8.20;99.90;;;;;;5082954;28;20561;-43
2023/11/11 07:52:02;;;;;;;16.13;8.53;;;8.20;99.90;;;;;;5063577;28;20560;-45
2023/11/11 07:54:31;;;;;;;12.97;9.13;;;8.30;99.90;;;;;;5080530;28;20202;-43
2023/11/11 07:56:58;;;;;;;12.93;9.07;;;8.30;99.90;;;;;;5080932;28;20228;-44
2023/11/11 07:59:25;;;;;;;14.43;10.17;;;8.30;99.90;;;;;;5087246;28;20221;-43
2023/11/11 08:01:53;;;;;;;19.13;10.90;;;8.30;99.90;;;;;;5085713;28;20201;-43
2023/11/11 08:04:20;;;;;;;19.10;10.97;;;8.30;99.90;;;;;;5109300;28;20205;-44
2023/11/11 08:06:46;;;;;;;17.43;10.70;;;8.30;99.90;;;;;;5090118;28;20305;-43
2023/11/11 08:09:16;;;;;;;18.33;11.37;;;8.30;99.90;;;;;;5091937;28;20220;-44
2023/11/11 08:11:44;;;;;;;16.33;10.83;;;8.30;99.90;;;;;;5092054;28;20595;-48
2023/11/11 08:14:11;;;;;;;19.80;11.37;;;8.40;99.90;;;;;;5097527;28;20197;-43
2023/11/11 08:16:38;;;;;;;17.40;10.90;;;8.30;99.90;;;;;;5094862;28;20217;-43
2023/11/11 08:19:05;;;;;;;16.20;11.30;;;8.30;99.90;;;;;;5094045;28;20213;-42
2023/11/11 08:21:32;;;;;;;18.03;11.17;;;8.30;99.90;;;;;;5095050;28;20216;-44
2023/11/11 08:24:00;;;;;;;18.43;11.47;;;8.30;99.90;;;;;;5077943;28;20201;-43
2023/11/11 08:26:28;;;;;;;19.93;12.00;;;8.30;99.90;;;;;;5099535;28;20220;-45
2023/11/11 08:28:55;;;;;;;19.23;11.10;;;8.30;99.90;;;;;;5100885;27;20200;-43
2023/11/11 08:31:21;;;;;;;20.40;11.50;;;8.30;99.90;;;;;;5070844;28;20237;-45
2023/11/11 08:33:49;;;;;;;22.73;12.00;;;8.30;99.90;;;;;;5093845;28;20197;-45
2023/11/11 08:36:15;;;;;;;20.80;12.30;;;8.30;99.90;;;;;;5094060;28;20959;-43
2023/11/11 08:38:42;;;;;;;17.97;11.90;;;8.30;99.90;;;;;;5076858;28;20289;-43
2023/11/11 08:41:09;;;;;;;19.80;11.57;;;8.30;99.90;;;;;;5093519;28;20217;-43
2023/11/11 08:43:38;;;;;;;18.93;12.67;;;8.30;99.90;;;;;;5102333;28;20213;-44
2023/11/11 08:46:07;;;;;;;17.80;12.43;;;8.30;99.90;;;;;;5086156;28;20227;-45
2023/11/11 08:48:38;;;;;;;18.47;11.43;;;8.30;99.90;;;;;;5094254;28;20209;-42
2023/11/11 08:51:05;;;;;;;19.23;12.70;;;8.30;99.90;;;;;;5094804;27;20212;-45
2023/11/11 08:53:33;;;;;;;20.53;12.53;;;8.40;99.90;;;;;;5072128;28;20584;-43
2023/11/11 08:55:59;;;;;;;21.40;11.93;;;8.50;99.90;;;;;;5102073;27;20214;-42
2023/11/11 08:58:26;;;;;;;17.77;11.80;;;8.50;99.90;;;;;;5104343;28;20221;-44
2023/11/11 09:00:56;;;;;;;22.67;13.40;;;8.60;99.90;;;;;;5099593;28;20230;-42
2023/11/11 09:03:22;;;;;;;20.70;12.23;;;8.60;99.90;;;;;;5099323;27;20197;-43
2023/11/11 09:05:50;;;;;;;21.93;12.33;;;8.50;99.90;;;;;;5097774;27;20225;-47
2023/11/11 09:08:17;;;;;;;20.53;13.50;;;8.50;99.90;;;;;;5064514;28;20201;-49
2023/11/11 09:10:44;;;;;;;19.73;12.73;;;8.50;99.90;;;;;;5092126;28;20282;-44
2023/11/11 09:13:11;;;;;;;18.20;11.63;;;8.60;99.90;;;;;;5092259;28;20204;-47
2023/11/11 09:15:38;;;;;;;19.77;12.70;;;8.60;99.90;;;;;;5099529;27;20224;-47
2023/11/11 09:18:07;;;;;;;22.33;12.13;;;8.60;99.90;;;;;;5082890;28;20190;-43
2023/11/11 09:20:34;;;;;;;20.13;12.73;;;8.60;99.90;;;;;;5101141;28;20221;-42
2023/11/11 09:23:01;;;;;;;20.30;12.53;;;8.70;99.90;;;;;;5087387;28;20198;-42
2023/11/11 09:25:29;;;;;;;18.53;12.07;;;8.70;99.90;;;;;;5066645;28;20221;-42
2023/11/11 09:27:57;;;;;;;20.53;12.70;;;8.70;99.90;;;;;;5090743;28;20706;-42
2023/11/11 09:30:24;;;;;;;20.07;12.73;;;8.80;99.90;;;;;;5098148;28;20208;-44
2023/11/11 09:32:53;;;;;;;17.83;11.57;;;8.80;99.90;;;;;;5065159;28;20647;-42
2023/11/11 09:35:21;;;;;;;15.87;11.93;;;8.80;99.90;;;;;;5102033;28;20193;-44
2023/11/11 09:37:49;;;;;;;16.87;12.37;;;8.90;99.90;;;;;;5089095;28;20189;-46
2023/11/11 09:40:16;;;;;;;19.20;12.60;;;8.90;99.90;;;;;;5067966;28;20257;-44
2023/11/11 09:42:43;;;;;;;16.93;11.03;;;8.90;99.90;;;;;;5091601;27;20246;-48
2023/11/11 09:45:12;;;;;;;15.97;11.13;;;8.90;99.90;;;;;;5097619;28;20189;-43
2023/11/11 09:47:42;;;;;;;15.63;11.20;;;8.90;99.90;;;;;;5088600;28;20193;-42
2023/11/11 09:50:11;;;;;;;18.47;10.77;;;8.90;99.90;;;;;;5099505;27;20204;-45
2023/11/11 09:52:39;;;;;;;19.13;11.30;;;8.90;99.90;;;;;;5097353;28;20189;-42
2023/11/11 09:55:08;;;;;;;17.83;10.97;;;8.90;99.90;;;;;;5063855;27;20333;-46
2023/11/11 09:57:36;;;;;;;14.33;10.27;;;8.90;99.90;;;;;;5091077;28;20719;-43
2023/11/11 10:00:05;;;;;;;15.67;10.97;;;9.00;99.90;;;;;;5089460;28;20212;-44
2023/11/11 10:02:38;;;;;;;16.77;11.33;;;8.90;99.90;;;;;;5096296;28;20205;-46
2023/11/11 10:05:09;;;;;;;19.47;10.40;;;9.00;99.90;;;;;;5087975;27;20240;-44
2023/11/11 10:07:36;;;;;;;14.67;10.33;;;9.00;99.90;;;;;;5101629;27;20242;-44
2023/11/11 10:10:08;;;;;;;14.13;10.43;;;9.00;99.90;;;;;;5072954;27;20197;-42
2023/11/11 10:12:37;;;;;;;14.63;10.50;;;9.00;99.90;;;;;;5096881;28;20208;-44
2023/11/11 10:15:04;;;;;;;15.10;10.77;;;9.00;99.90;;;;;;5091378;28;20206;-43
2023/11/11 10:17:38;;;;;;;13.87;10.37;;;9.00;99.90;;;;;;5104166;28;20581;-46
2023/11/11 10:20:10;;;;;;;15.30;9.67;;;8.90;99.90;;;;;;5073898;28;20699;-42
2023/11/11 10:22:41;;;;;;;17.07;10.67;;;8.90;99.90;;;;;;5095718;28;20207;-44
2023/11/11 10:25:10;;;;;;;16.30;10.00;;;9.00;99.90;;;;;;5094465;27;20239;-42
2023/11/11 10:27:38;;;;;;;15.53;9.77;;;9.00;99.90;;;;;;5076991;27;20213;-42
2023/11/11 10:30:16;;;;;;;17.73;11.00;;;9.00;99.90;;;;;;5092244;27;20202;-44
2023/11/11 10:32:48;;;;;;;17.67;10.30;;;9.10;99.90;;;;;;5095581;27;20805;-42
2023/11/11 10:35:16;;;;;;;13.73;10.57;;;9.10;99.90;;;;;;5070810;28;20216;-42
2023/11/11 10:37:43;;;;;;;16.07;10.57;;;9.10;99.90;;;;;;5085109;28;20190;-47
2023/11/11 10:40:13;;;;;;;15.50;10.80;;;9.00;99.90;;;;;;5079371;27;20242;-45
2023/11/11 10:42:41;;;;;;;17.77;10.93;;;9.00;99.90;;;;;;5062997;27;20189;-42
2023/11/11 10:45:10;;;;;;;12.83;9.77;;;9.00;99.90;;;;;;5091322;27;20205;-44
2023/11/11 10:47:38;;;;;;;14.40;9.93;;;9.00;99.90;;;;;;5090480;28;20275;-42
2023/11/11 10:50:07;;;;;;;19.10;9.73;;;9.00;99.90;;;;;;5091234;28;20242;-43
2023/11/11 10:52:35;;;;;;;11.30;9.30;;;9.00;99.90;;;;;;5082651;28;20764;-42
2023/11/11 10:55:04;;;;;;;13.67;9.53;;;9.10;99.90;;;;;;5074509;28;20190;-44
2023/11/11 10:57:33;;;;;;;14.17;9.33;;;9.10;99.90;;;;;;5069879;27;20282;-44
2023/11/11 11:00:00;;;;;;;12.87;9.57;;;9.10;99.90;;;;;;5095160;28;20263;-43
2023/11/11 11:02:28;;;;;;;14.57;9.30;;;9.10;99.90;;;;;;5086119;28;20230;-44
2023/11/11 11:05:03;;;;;;;12.83;9.07;;;9.10;99.90;;;;;;5090905;28;20190;-44
2023/11/11 11:07:37;;;;;;;15.40;8.93;;;9.10;99.90;;;;;;5069703;28;22002;-44
2023/11/11 11:10:11;;;;;;;12.53;9.10;;;9.00;99.90;;;;;;5093058;27;20189;-45
2023/11/11 11:12:47;;;;;;;12.60;9.07;;;9.00;99.90;;;;;;5056523;28;20329;-46
2023/11/11 11:15:14;;;;;;;11.23;9.10;;;8.90;99.90;;;;;;5086725;28;20212;-49
2023/11/11 11:17:44;;;;;;;13.37;9.07;;;8.90;99.90;;;;;;5086906;28;20204;-44
2023/11/11 11:20:14;;;;;;;11.37;7.17;;;8.90;99.90;;;;;;5094010;28;20226;-48
2023/11/11 11:22:43;;;;;;;9.63;7.33;;;8.90;99.90;;;;;;5090019;28;20200;-42
2023/11/11 11:25:37;;;;;;;11.07;7.37;;;8.90;99.90;;;;;;5090659;28;20754;-50
2023/11/11 11:28:25;;;;;;;11.80;8.63;;;8.80;99.90;;;;;;5053309;28;20209;-44
2023/11/11 11:30:54;;;;;;;10.60;8.27;;;8.80;99.90;;;;;;5084811;28;20246;-42
2023/11/11 11:33:24;;;;;;;10.87;8.07;;;8.70;99.90;;;;;;5085222;27;20300;-49
2023/11/11 11:35:53;;;;;;;9.50;7.77;;;8.80;99.90;;;;;;5098102;28;20217;-43
2023/11/11 11:38:27;;;;;;;10.23;7.70;;;8.80;99.90;;;;;;5085706;27;20231;-47
2023/11/11 11:41:01;;;;;;;10.73;7.47;;;8.80;99.90;;;;;;5091808;28;20637;-45
2023/11/11 11:43:31;;;;;;;9.17;7.30;;;8.80;99.90;;;;;;5051080;28;20258;-46
2023/11/11 11:45:58;;;;;;;12.07;7.67;;;8.80;99.90;;;;;;5090371;28;20217;-45
2023/11/11 11:48:27;;;;;;;9.17;6.00;;;8.80;99.90;;;;;;5086396;28;20690;-48
2023/11/11 11:51:04;;;;;;;6.97;5.20;;;8.70;99.90;;;;;;5094317;28;20189;-46
2023/11/11 11:53:31;;;;;;;7.13;5.00;;;8.70;99.90;;;;;;5091538;28;20902;-45
2023/11/11 11:55:58;;;;;;;8.40;6.30;;;8.80;99.90;;;;;;5092804;28;20221;-42
2023/11/11 11:58:25;;;;;;;8.93;5.90;;;8.80;99.90;;;;;;5077980;28;20225;-49
2023/11/11 12:00:54;;;;;;;7.33;6.03;;;8.80;99.90;;;;;;5067634;28;20550;-44
2023/11/11 12:03:20;;;;;;;7.13;5.53;;;8.90;99.90;;;;;;5098450;28;20205;-49
2023/11/11 12:05:51;;;;;;;7.73;5.73;;;8.90;99.90;;;;;;5097852;28;20221;-44
2023/11/11 12:08:18;;;;;;;8.40;5.83;;;8.90;99.90;;;;;;5099718;28;20204;-49
2023/11/11 12:10:46;;;;;;;10.67;5.33;;;8.80;99.90;;;;;;5096804;28;20189;-43
2023/11/11 12:13:13;;;;;;;7.63;4.57;;;8.80;99.90;;;;;;5090868;28;20207;-50
2023/11/11 12:15:48;;;;;;;7.70;4.10;;;8.70;99.90;;;;;;5068222;28;20343;-42
2023/11/11 12:18:17;;;;;;;6.13;4.10;;;8.70;99.90;;;;;;5100737;28;20192;-49
2023/11/11 12:20:47;;;;;;;3.83;3.43;;;8.70;99.90;;;;;;5094357;28;20219;-44
2023/11/11 12:23:14;;;;;;;5.17;2.73;;;8.70;99.90;;;;;;5105548;27;20211;-47
2023/11/11 12:25:42;;;;;;;5.23;3.33;;;8.70;99.90;;;;;;5104536;27;20209;-43
2023/11/11 12:28:09;;;;;;;4.27;3.20;;;8.70;99.90;;;;;;5105294;28;20279;-44
2023/11/11 12:30:36;;;;;;;5.40;2.90;;;8.70;99.90;;;;;;5091118;27;20248;-47
2023/11/11 12:33:04;;;;;;;4.23;3.40;;;8.70;99.90;;;;;;5062125;27;20225;-43
2023/11/11 12:35:34;;;;;;;7.60;2.87;;;8.60;99.90;;;;;;5098910;28;20695;-43
2023/11/11 12:38:15;;;;;;;2.67;2.13;;;8.60;99.90;;;;;;5100778;28;20880;-42
2023/11/11 12:40:43;;;;;;;3.20;2.10;;;8.60;99.90;;;;;;5104042;28;20569;-44
2023/11/11 12:43:13;;;;;;;5.07;2.17;;;8.60;99.90;;;;;;5103302;27;20189;-43
2023/11/11 12:45:45;;;;;;;2.53;2.33;;;8.70;99.90;;;;;;5100008;27;20456;-46
2023/11/11 12:48:12;;;;;;;2.90;2.30;;;8.60;99.90;;;;;;5072432;27;20189;-44
2023/11/11 12:50:40;;;;;;;2.97;2.00;;;8.70;99.90;;;;;;5092368;28;20265;-44
2023/11/11 12:53:10;;;;;;;1.83;1.67;;;8.70;99.90;;;;;;5095276;28;20262;-47
2023/11/11 12:55:38;;;;;;;3.50;2.10;;;8.80;99.90;;;;;;5096662;28;20225;-45